Ralph Wenz Field
KPNA : rendu visible

Aérodrome :











RETROUVEZ-NOUS SUR...

 
LOGIN :

S'inscrire | Disclaimer

   EN    FR    IT 

 









Légende :    VFR   VFR Marginal   IFR   IFR Intensif   IFR Très Intensif
Visi : 
Plafond : 
>= 8 km
>= 3000ft
5 à 8 km
1000 à 3000 ft
1500m à 5 km
500 à 1000 ft
800 à 1500m
200 à 500 ft
< 800m
< 200 ft
Symboles :   Orages  Brouillard  Fortes neiges  Fortes précipitations  Vent > 20 kt






- Altitude de l'aérodrome : 7102 ft


KPNA - Ralph Wenz Field

DERNIER METAR :
  • 031215Z AUTO 31003KT 10SM CLR 05/05 A3029 RMK AO2

METARs EXPIRÉS :
  • 031155Z AUTO 32004KT 10SM CLR 05/05 A3029 RMK AO2
  • 031135Z AUTO 25003KT 10SM CLR 05/05 A3029 RMK AO2
  • 031115Z AUTO 32006KT 10SM CLR 05/04 A3029 RMK AO2
  • 031055Z AUTO 30004KT 10SM CLR 06/05 A3029 RMK AO2
  • 031035Z AUTO 28004KT 10SM CLR 06/05 A3029 RMK AO2
  • 031015Z AUTO 29005KT 10SM CLR 06/06 A3029 RMK AO2
  • 030955Z AUTO 28005KT 10SM SCT100 SCT120 07/06 A3029 RMK AO2
  • 030935Z AUTO 28003KT 10SM SCT075 BKN100 08/06 A3029 RMK AO2

TAF KPNA
Valide du 03 à 12h jusqu'au 04 à 12h UTC


031120Z 0312/0412 30007KT P6SM FEW110 SCT200
FM031600 29012G20KT P6SM FEW070 BKN200
FM031900 29018G26KT P6SM SCT080 BKN150
FM032100 29024G32KT P6SM FEW080 SCT150
FM040200 30007KT P6SM FEW090 SCT200
FIR KZLC / Amérique du Nord



MET'MAP, la Météo Aéronautique d'un coup d'oeil ! - Copyright ORBIFLY Décembre 2007 - Disclaimer

ORBIFLY MET'MAP TEAM :

Programmation & Développement : Alexandra Zaïnal
Sur une idée originale de : Baudouin d'Aumeries
Assistance à la programmation : Marc-Olivier Méhu
Soutien technique & logistique : Manuel Goepfert

Contact : metmap@orbifly.com




SOURCES & CREDITS :

   NOAA       Earth
Advisory